Fairfax, IA (52228)

12:34 PM CDT on July 29, 2016 (GMT -0500)
Rockhurst Dr SW - Stoney Point | | Change Station

Elev 830 ft 41.97 °N, 91.76 °W | Updated 36 seconds ago

Overcast
Overcast
71.8 °F
Feels Like 71 °F
N
5.1
Wind Variable Wind from NNW
Gusts 7.4 mph

Today
High -- | Low -- °F
--% Chance of Precip.
Yesterday
High -- | Low -- °F
Precip. -- in
Pressure 29.97 in
Visibility 5.0 miles
Clouds Mostly Cloudy 1100 ft
Mostly Cloudy 2100 ft
Overcast 4200 ft
Heat Index 71 °F
Dew Point 66 °F
Humidity 83%
Rainfall 0.00 in
Snow Depth Not available.
5:58 AM 8:28 PM
Waning Crescent, 20% visible
SPECI KCID 291710Z 35009KT 5SM BR BKN011 BKN021 OVC042 23/21 A2997 RMK AO2 T02280206
Pressure 29.97 in
Visibility 5.0 miles
Clouds Mostly Cloudy 1100 ft
Mostly Cloudy 2100 ft
Overcast 4200 ft
Heat Index 71 °F
Dew Point 66 °F
Humidity 83%
Rainfall 0.00 in
Snow Depth Not available.
5:58 AM 8:28 PM
Waning Crescent, 20% visible
SPECI KCID 291710Z 35009KT 5SM BR BKN011 BKN021 OVC042 23/21 A2997 RMK AO2 T02280206

10-Day Weather Forecast

Almanac

Astronomy

Jul. 29, 2016 Rise Set
Actual Time
Civil Twilight
Nautical Twilight
Astronomical Twilight
Moon
Length of Visible Light
Length of Day
Tomorrow will be .
, % of the Moon is Illuminated

Today's Extremes

State Highs State Lows

Community

WunderPhotos

Upload Photos

1,928,382 photos uploaded!

WunderBlog® & News

Nearby

Air Quality

  Air Quality AQ Index Pollutant
Not available.

Snow Depth

Station Depth Elevation

Earthquake Activity

City Distance Mag. Time & Date
Minimum magnitude displayed is 2.5.

Coastal Water Temperatures

Place Temperature

Stations

Nearby Weather Stations

Station Location Temp. Windchill Dew Point Humidity Wind Precip. Elev Updated Type
                   

Watches & Warnings

There are currently no watches in effect.